sensor_id;sensor_type;location;lat;lon;timestamp;P1;durP1;ratioP1;P2;durP2;ratioP2
30420;SDS011;17218;54.070;10.012;2022-09-01T00:01:44;1.20;;;1.10;;
30420;SDS011;17218;54.070;10.012;2022-09-01T00:04:13;0.90;;;0.90;;
30420;SDS011;17218;54.070;10.012;2022-09-01T00:06:41;3.78;;;1.13;;
30420;SDS011;17218;54.070;10.012;2022-09-01T00:09:09;0.98;;;0.98;;
30420;SDS011;17218;54.070;10.012;2022-09-01T00:11:39;1.20;;;1.10;;
30420;SDS011;17218;54.070;10.012;2022-09-01T00:14:08;1.35;;;1.25;;
30420;SDS011;17218;54.070;10.012;2022-09-01T00:16:35;1.30;;;1.20;;
30420;SDS011;17218;54.070;10.012;2022-09-01T00:19:02;1.95;;;1.10;;
30420;SDS011;17218;54.070;10.012;2022-09-01T00:21:30;1.08;;;1.00;;
30420;SDS011;17218;54.070;10.012;2022-09-01T00:24:02;1.73;;;1.20;;
30420;SDS011;17218;54.070;10.012;2022-09-01T00:26:29;1.33;;;1.02;;
30420;SDS011;17218;54.070;10.012;2022-09-01T00:28:57;1.13;;;1.02;;
30420;SDS011;17218;54.070;10.012;2022-09-01T00:33:57;5.10;;;0.98;;
30420;SDS011;17218;54.070;10.012;2022-09-01T00:36:23;1.38;;;1.20;;
30420;SDS011;17218;54.070;10.012;2022-09-01T00:38:50;1.23;;;1.13;;
30420;SDS011;17218;54.070;10.012;2022-09-01T00:41:18;1.38;;;1.10;;
30420;SDS011;17218;54.070;10.012;2022-09-01T00:43:47;1.25;;;1.15;;
30420;SDS011;17218;54.070;10.012;2022-09-01T00:46:17;1.40;;;1.30;;
30420;SDS011;17218;54.070;10.012;2022-09-01T00:48:46;1.33;;;1.20;;
30420;SDS011;17218;54.070;10.012;2022-09-01T00:51:18;1.50;;;1.10;;
30420;SDS011;17218;54.070;10.012;2022-09-01T00:53:45;2.85;;;1.10;;
30420;SDS011;17218;54.070;10.012;2022-09-01T00:56:13;1.10;;;1.00;;
30420;SDS011;17218;54.070;10.012;2022-09-01T00:58:40;1.00;;;1.00;;
30420;SDS011;17218;54.070;10.012;2022-09-01T01:01:08;1.80;;;1.17;;
30420;SDS011;17218;54.070;10.012;2022-09-01T01:03:37;1.30;;;1.20;;
30420;SDS011;17218;54.070;10.012;2022-09-01T01:06:09;1.30;;;1.20;;
30420;SDS011;17218;54.070;10.012;2022-09-01T01:08:39;1.50;;;1.20;;
30420;SDS011;17218;54.070;10.012;2022-09-01T01:11:09;1.90;;;1.50;;
30420;SDS011;17218;54.070;10.012;2022-09-01T01:13:48;1.73;;;1.63;;
30420;SDS011;17218;54.070;10.012;2022-09-01T01:16:17;1.50;;;1.40;;
30420;SDS011;17218;54.070;10.012;2022-09-01T01:18:45;1.98;;;1.48;;
30420;SDS011;17218;54.070;10.012;2022-09-01T01:21:14;1.88;;;1.77;;
30420;SDS011;17218;54.070;10.012;2022-09-01T01:24:03;1.63;;;1.52;;
30420;SDS011;17218;54.070;10.012;2022-09-01T01:26:36;2.97;;;1.20;;
30420;SDS011;17218;54.070;10.012;2022-09-01T01:29:02;1.40;;;1.27;;
30420;SDS011;17218;54.070;10.012;2022-09-01T01:31:30;1.33;;;1.25;;
30420;SDS011;17218;54.070;10.012;2022-09-01T01:33:57;1.40;;;1.30;;
30420;SDS011;17218;54.070;10.012;2022-09-01T01:36:25;1.15;;;1.10;;
30420;SDS011;17218;54.070;10.012;2022-09-01T01:38:57;1.20;;;1.10;;
30420;SDS011;17218;54.070;10.012;2022-09-01T01:41:26;1.20;;;1.10;;
30420;SDS011;17218;54.070;10.012;2022-09-01T01:43:55;1.42;;;1.33;;
30420;SDS011;17218;54.070;10.012;2022-09-01T01:46:23;1.33;;;1.23;;
30420;SDS011;17218;54.070;10.012;2022-09-01T01:48:51;1.50;;;1.40;;
30420;SDS011;17218;54.070;10.012;2022-09-01T01:51:20;1.42;;;1.33;;
30420;SDS011;17218;54.070;10.012;2022-09-01T01:53:49;1.67;;;1.40;;
30420;SDS011;17218;54.070;10.012;2022-09-01T01:56:17;3.80;;;1.40;;
30420;SDS011;17218;54.070;10.012;2022-09-01T01:58:43;1.58;;;1.35;;
30420;SDS011;17218;54.070;10.012;2022-09-01T02:01:12;3.85;;;1.25;;
30420;SDS011;17218;54.070;10.012;2022-09-01T02:03:41;1.83;;;1.23;;
30420;SDS011;17218;54.070;10.012;2022-09-01T02:06:08;1.30;;;1.20;;
30420;SDS011;17218;54.070;10.012;2022-09-01T02:08:37;1.77;;;1.67;;
30420;SDS011;17218;54.070;10.012;2022-09-01T02:11:05;1.40;;;1.30;;
30420;SDS011;17218;54.070;10.012;2022-09-01T02:13:33;1.42;;;1.33;;
30420;SDS011;17218;54.070;10.012;2022-09-01T02:16:00;1.60;;;1.50;;
30420;SDS011;17218;54.070;10.012;2022-09-01T02:18:33;1.30;;;1.20;;
30420;SDS011;17218;54.070;10.012;2022-09-01T02:21:01;2.00;;;1.48;;
30420;SDS011;17218;54.070;10.012;2022-09-01T02:23:35;1.33;;;1.20;;
30420;SDS011;17218;54.070;10.012;2022-09-01T02:26:02;1.50;;;1.40;;
30420;SDS011;17218;54.070;10.012;2022-09-01T02:28:31;1.73;;;1.50;;
30420;SDS011;17218;54.070;10.012;2022-09-01T02:31:00;1.90;;;1.25;;
30420;SDS011;17218;54.070;10.012;2022-09-01T02:33:28;1.30;;;1.20;;
30420;SDS011;17218;54.070;10.012;2022-09-01T02:35:58;1.20;;;1.10;;
30420;SDS011;17218;54.070;10.012;2022-09-01T02:38:28;1.55;;;1.45;;
30420;SDS011;17218;54.070;10.012;2022-09-01T02:40:58;1.63;;;1.52;;
30420;SDS011;17218;54.070;10.012;2022-09-01T02:43:26;1.35;;;1.25;;
30420;SDS011;17218;54.070;10.012;2022-09-01T02:45:54;1.40;;;1.30;;
30420;SDS011;17218;54.070;10.012;2022-09-01T02:48:24;1.23;;;1.13;;
30420;SDS011;17218;54.070;10.012;2022-09-01T02:50:58;1.30;;;1.20;;
30420;SDS011;17218;54.070;10.012;2022-09-01T02:53:26;1.40;;;1.30;;
30420;SDS011;17218;54.070;10.012;2022-09-01T02:55:53;1.17;;;1.10;;
30420;SDS011;17218;54.070;10.012;2022-09-01T02:58:23;1.75;;;1.08;;
30420;SDS011;17218;54.070;10.012;2022-09-01T03:00:50;1.33;;;1.17;;
30420;SDS011;17218;54.070;10.012;2022-09-01T03:03:18;1.38;;;1.15;;
30420;SDS011;17218;54.070;10.012;2022-09-01T03:05:46;2.22;;;1.10;;
30420;SDS011;17218;54.070;10.012;2022-09-01T03:08:15;1.67;;;1.25;;
30420;SDS011;17218;54.070;10.012;2022-09-01T03:10:43;1.20;;;1.10;;
30420;SDS011;17218;54.070;10.012;2022-09-01T03:13:12;1.50;;;1.40;;
30420;SDS011;17218;54.070;10.012;2022-09-01T03:15:40;1.02;;;0.93;;
30420;SDS011;17218;54.070;10.012;2022-09-01T03:18:08;0.88;;;0.88;;
30420;SDS011;17218;54.070;10.012;2022-09-01T03:20:37;1.33;;;1.23;;
30420;SDS011;17218;54.070;10.012;2022-09-01T03:23:08;1.42;;;1.10;;
30420;SDS011;17218;54.070;10.012;2022-09-01T03:25:40;0.98;;;0.90;;
30420;SDS011;17218;54.070;10.012;2022-09-01T03:28:07;1.35;;;1.25;;
30420;SDS011;17218;54.070;10.012;2022-09-01T03:30:37;2.33;;;1.35;;
30420;SDS011;17218;54.070;10.012;2022-09-01T03:33:05;9.27;;;1.33;;
30420;SDS011;17218;54.070;10.012;2022-09-01T03:35:32;2.55;;;2.35;;
30420;SDS011;17218;54.070;10.012;2022-09-01T03:37:59;1.40;;;1.30;;
30420;SDS011;17218;54.070;10.012;2022-09-01T03:40:27;1.50;;;1.40;;
30420;SDS011;17218;54.070;10.012;2022-09-01T03:42:58;1.17;;;1.13;;
30420;SDS011;17218;54.070;10.012;2022-09-01T03:45:24;1.38;;;1.27;;
30420;SDS011;17218;54.070;10.012;2022-09-01T03:47:51;1.45;;;1.13;;
30420;SDS011;17218;54.070;10.012;2022-09-01T03:50:20;1.52;;;1.40;;
30420;SDS011;17218;54.070;10.012;2022-09-01T03:52:48;2.38;;;1.50;;
30420;SDS011;17218;54.070;10.012;2022-09-01T03:55:17;1.58;;;1.40;;
30420;SDS011;17218;54.070;10.012;2022-09-01T03:57:47;1.35;;;1.25;;
30420;SDS011;17218;54.070;10.012;2022-09-01T04:00:16;1.98;;;1.45;;
30420;SDS011;17218;54.070;10.012;2022-09-01T04:02:45;1.30;;;1.20;;
30420;SDS011;17218;54.070;10.012;2022-09-01T04:05:14;1.30;;;1.20;;
30420;SDS011;17218;54.070;10.012;2022-09-01T04:07:42;1.30;;;1.20;;
30420;SDS011;17218;54.070;10.012;2022-09-01T04:10:11;1.60;;;1.50;;
30420;SDS011;17218;54.070;10.012;2022-09-01T04:12:38;1.50;;;1.40;;
30420;SDS011;17218;54.070;10.012;2022-09-01T04:15:05;2.13;;;1.63;;
30420;SDS011;17218;54.070;10.012;2022-09-01T04:17:34;2.03;;;1.63;;
30420;SDS011;17218;54.070;10.012;2022-09-01T04:20:18;2.08;;;1.58;;
30420;SDS011;17218;54.070;10.012;2022-09-01T04:22:46;2.17;;;1.60;;
30420;SDS011;17218;54.070;10.012;2022-09-01T04:25:14;1.80;;;1.70;;
30420;SDS011;17218;54.070;10.012;2022-09-01T04:27:41;1.83;;;1.70;;
30420;SDS011;17218;54.070;10.012;2022-09-01T04:30:09;1.83;;;1.73;;
30420;SDS011;17218;54.070;10.012;2022-09-01T04:32:38;1.95;;;1.60;;
30420;SDS011;17218;54.070;10.012;2022-09-01T04:35:06;1.73;;;1.63;;
30420;SDS011;17218;54.070;10.012;2022-09-01T04:37:35;1.65;;;1.55;;
30420;SDS011;17218;54.070;10.012;2022-09-01T04:40:02;1.65;;;1.55;;
30420;SDS011;17218;54.070;10.012;2022-09-01T04:42:29;1.80;;;1.70;;
30420;SDS011;17218;54.070;10.012;2022-09-01T04:44:56;1.52;;;1.42;;
30420;SDS011;17218;54.070;10.012;2022-09-01T04:47:25;1.38;;;1.27;;
30420;SDS011;17218;54.070;10.012;2022-09-01T04:49:56;1.60;;;1.50;;
30420;SDS011;17218;54.070;10.012;2022-09-01T04:52:27;1.73;;;1.63;;
30420;SDS011;17218;54.070;10.012;2022-09-01T04:54:56;2.00;;;1.50;;
30420;SDS011;17218;54.070;10.012;2022-09-01T04:57:22;1.80;;;1.70;;
30420;SDS011;17218;54.070;10.012;2022-09-01T04:59:55;1.73;;;1.60;;
30420;SDS011;17218;54.070;10.012;2022-09-01T05:02:22;2.05;;;1.80;;
30420;SDS011;17218;54.070;10.012;2022-09-01T05:04:52;2.92;;;1.60;;
30420;SDS011;17218;54.070;10.012;2022-09-01T05:07:24;2.05;;;1.70;;
30420;SDS011;17218;54.070;10.012;2022-09-01T05:09:51;1.85;;;1.67;;
30420;SDS011;17218;54.070;10.012;2022-09-01T05:12:18;1.75;;;1.60;;
30420;SDS011;17218;54.070;10.012;2022-09-01T05:14:46;2.58;;;1.40;;
30420;SDS011;17218;54.070;10.012;2022-09-01T05:17:12;1.92;;;1.70;;
30420;SDS011;17218;54.070;10.012;2022-09-01T05:19:42;1.70;;;1.60;;
30420;SDS011;17218;54.070;10.012;2022-09-01T05:22:11;2.30;;;1.70;;
30420;SDS011;17218;54.070;10.012;2022-09-01T05:24:41;3.38;;;2.28;;
30420;SDS011;17218;54.070;10.012;2022-09-01T05:27:07;1.83;;;1.70;;
30420;SDS011;17218;54.070;10.012;2022-09-01T05:29:36;2.05;;;1.85;;
30420;SDS011;17218;54.070;10.012;2022-09-01T05:32:04;3.70;;;1.70;;
30420;SDS011;17218;54.070;10.012;2022-09-01T05:34:35;1.80;;;1.50;;
30420;SDS011;17218;54.070;10.012;2022-09-01T05:37:03;4.40;;;1.83;;
30420;SDS011;17218;54.070;10.012;2022-09-01T05:39:31;2.40;;;1.63;;
30420;SDS011;17218;54.070;10.012;2022-09-01T05:42:00;1.75;;;1.65;;
30420;SDS011;17218;54.070;10.012;2022-09-01T05:44:28;2.60;;;1.98;;
30420;SDS011;17218;54.070;10.012;2022-09-01T05:46:57;2.00;;;1.90;;
30420;SDS011;17218;54.070;10.012;2022-09-01T05:49:24;2.42;;;2.22;;
30420;SDS011;17218;54.070;10.012;2022-09-01T05:51:50;2.20;;;2.00;;
30420;SDS011;17218;54.070;10.012;2022-09-01T05:54:23;2.33;;;2.13;;
30420;SDS011;17218;54.070;10.012;2022-09-01T05:56:51;3.85;;;2.50;;
30420;SDS011;17218;54.070;10.012;2022-09-01T05:59:19;2.30;;;2.10;;
30420;SDS011;17218;54.070;10.012;2022-09-01T06:01:48;2.05;;;1.85;;
30420;SDS011;17218;54.070;10.012;2022-09-01T06:04:15;2.55;;;2.22;;
30420;SDS011;17218;54.070;10.012;2022-09-01T06:06:42;2.05;;;1.88;;
30420;SDS011;17218;54.070;10.012;2022-09-01T06:09:11;3.50;;;2.10;;
30420;SDS011;17218;54.070;10.012;2022-09-01T06:11:42;2.38;;;2.20;;
30420;SDS011;17218;54.070;10.012;2022-09-01T06:14:10;2.70;;;2.28;;
30420;SDS011;17218;54.070;10.012;2022-09-01T06:16:39;2.17;;;1.90;;
30420;SDS011;17218;54.070;10.012;2022-09-01T06:19:07;2.30;;;2.10;;
30420;SDS011;17218;54.070;10.012;2022-09-01T06:21:34;5.88;;;2.08;;
30420;SDS011;17218;54.070;10.012;2022-09-01T06:24:01;1.85;;;1.75;;
30420;SDS011;17218;54.070;10.012;2022-09-01T06:26:29;3.35;;;2.10;;
30420;SDS011;17218;54.070;10.012;2022-09-01T06:28:59;2.67;;;1.98;;
30420;SDS011;17218;54.070;10.012;2022-09-01T06:31:29;2.83;;;1.80;;
30420;SDS011;17218;54.070;10.012;2022-09-01T06:34:01;1.98;;;1.85;;
30420;SDS011;17218;54.070;10.012;2022-09-01T06:36:29;2.17;;;1.98;;
30420;SDS011;17218;54.070;10.012;2022-09-01T06:38:57;3.40;;;1.90;;
30420;SDS011;17218;54.070;10.012;2022-09-01T06:41:25;2.20;;;1.92;;
30420;SDS011;17218;54.070;10.012;2022-09-01T06:43:52;1.85;;;1.67;;
30420;SDS011;17218;54.070;10.012;2022-09-01T06:46:20;2.58;;;1.67;;
30420;SDS011;17218;54.070;10.012;2022-09-01T06:48:48;1.55;;;1.45;;
30420;SDS011;17218;54.070;10.012;2022-09-01T06:51:18;1.33;;;1.23;;
30420;SDS011;17218;54.070;10.012;2022-09-01T06:53:46;2.20;;;1.30;;
30420;SDS011;17218;54.070;10.012;2022-09-01T06:56:15;1.85;;;1.20;;
30420;SDS011;17218;54.070;10.012;2022-09-01T06:58:43;1.23;;;1.10;;
30420;SDS011;17218;54.070;10.012;2022-09-01T07:01:13;3.83;;;1.05;;
30420;SDS011;17218;54.070;10.012;2022-09-01T07:03:44;1.35;;;0.98;;
30420;SDS011;17218;54.070;10.012;2022-09-01T07:06:12;2.15;;;1.00;;
30420;SDS011;17218;54.070;10.012;2022-09-01T07:08:41;1.88;;;1.23;;
30420;SDS011;17218;54.070;10.012;2022-09-01T07:11:15;2.40;;;1.10;;
30420;SDS011;17218;54.070;10.012;2022-09-01T07:13:51;1.83;;;1.00;;
30420;SDS011;17218;54.070;10.012;2022-09-01T07:16:20;0.90;;;0.90;;
30420;SDS011;17218;54.070;10.012;2022-09-01T07:18:48;1.13;;;0.95;;
30420;SDS011;17218;54.070;10.012;2022-09-01T07:21:16;0.90;;;0.77;;
30420;SDS011;17218;54.070;10.012;2022-09-01T07:23:44;1.20;;;0.90;;
30420;SDS011;17218;54.070;10.012;2022-09-01T07:26:11;1.67;;;0.90;;
30420;SDS011;17218;54.070;10.012;2022-09-01T07:28:42;1.67;;;0.82;;
30420;SDS011;17218;54.070;10.012;2022-09-01T07:31:15;1.85;;;1.70;;
30420;SDS011;17218;54.070;10.012;2022-09-01T07:33:45;1.48;;;1.25;;
30420;SDS011;17218;54.070;10.012;2022-09-01T07:36:13;2.15;;;1.20;;
30420;SDS011;17218;54.070;10.012;2022-09-01T07:38:39;1.27;;;1.10;;
30420;SDS011;17218;54.070;10.012;2022-09-01T07:41:08;1.08;;;0.82;;
30420;SDS011;17218;54.070;10.012;2022-09-01T07:43:37;1.17;;;0.98;;
30420;SDS011;17218;54.070;10.012;2022-09-01T07:46:06;1.20;;;0.98;;
30420;SDS011;17218;54.070;10.012;2022-09-01T07:48:32;1.17;;;1.08;;
30420;SDS011;17218;54.070;10.012;2022-09-01T07:50:59;1.15;;;1.05;;
30420;SDS011;17218;54.070;10.012;2022-09-01T07:53:26;1.67;;;0.80;;
30420;SDS011;17218;54.070;10.012;2022-09-01T07:55:55;1.05;;;0.93;;
30420;SDS011;17218;54.070;10.012;2022-09-01T07:58:25;3.45;;;1.20;;
30420;SDS011;17218;54.070;10.012;2022-09-01T08:00:53;0.90;;;0.90;;
30420;SDS011;17218;54.070;10.012;2022-09-01T08:03:21;7.15;;;1.63;;
30420;SDS011;17218;54.070;10.012;2022-09-01T08:05:49;1.13;;;0.80;;
30420;SDS011;17218;54.070;10.012;2022-09-01T08:08:21;0.95;;;0.73;;
30420;SDS011;17218;54.070;10.012;2022-09-01T08:10:48;3.92;;;1.08;;
30420;SDS011;17218;54.070;10.012;2022-09-01T08:13:15;1.33;;;0.80;;
30420;SDS011;17218;54.070;10.012;2022-09-01T08:15:44;2.13;;;0.77;;
30420;SDS011;17218;54.070;10.012;2022-09-01T08:18:11;1.98;;;1.02;;
30420;SDS011;17218;54.070;10.012;2022-09-01T08:20:39;1.73;;;0.88;;
30420;SDS011;17218;54.070;10.012;2022-09-01T08:23:09;2.90;;;0.98;;
30420;SDS011;17218;54.070;10.012;2022-09-01T08:25:37;1.45;;;0.82;;
30420;SDS011;17218;54.070;10.012;2022-09-01T08:28:04;0.52;;;0.52;;
30420;SDS011;17218;54.070;10.012;2022-09-01T08:30:31;1.48;;;0.80;;
30420;SDS011;17218;54.070;10.012;2022-09-01T08:33:00;0.95;;;0.60;;
30420;SDS011;17218;54.070;10.012;2022-09-01T08:35:27;1.25;;;0.80;;
30420;SDS011;17218;54.070;10.012;2022-09-01T08:37:54;3.13;;;0.80;;
30420;SDS011;17218;54.070;10.012;2022-09-01T08:40:21;2.65;;;0.60;;
30420;SDS011;17218;54.070;10.012;2022-09-01T08:42:51;0.60;;;0.60;;
30420;SDS011;17218;54.070;10.012;2022-09-01T08:45:26;1.20;;;0.77;;
30420;SDS011;17218;54.070;10.012;2022-09-01T08:47:58;1.80;;;0.50;;
30420;SDS011;17218;54.070;10.012;2022-09-01T08:50:35;1.77;;;0.63;;
30420;SDS011;17218;54.070;10.012;2022-09-01T08:53:04;0.75;;;0.50;;
30420;SDS011;17218;54.070;10.012;2022-09-01T08:55:39;1.35;;;0.50;;
30420;SDS011;17218;54.070;10.012;2022-09-01T08:58:09;1.33;;;0.57;;
30420;SDS011;17218;54.070;10.012;2022-09-01T09:00:40;0.63;;;0.63;;
30420;SDS011;17218;54.070;10.012;2022-09-01T09:03:14;0.85;;;0.60;;
30420;SDS011;17218;54.070;10.012;2022-09-01T09:05:56;2.03;;;0.50;;
30420;SDS011;17218;54.070;10.012;2022-09-01T09:08:35;2.03;;;0.63;;
30420;SDS011;17218;54.070;10.012;2022-09-01T09:11:33;0.85;;;0.70;;
30420;SDS011;17218;54.070;10.012;2022-09-01T09:14:08;0.70;;;0.70;;
30420;SDS011;17218;54.070;10.012;2022-09-01T09:16:44;2.03;;;0.70;;
30420;SDS011;17218;54.070;10.012;2022-09-01T09:19:15;0.82;;;0.52;;
30420;SDS011;17218;54.070;10.012;2022-09-01T09:21:48;0.50;;;0.50;;
30420;SDS011;17218;54.070;10.012;2022-09-01T09:24:25;3.42;;;0.65;;
30420;SDS011;17218;54.070;10.012;2022-09-01T09:27:11;1.00;;;0.60;;
30420;SDS011;17218;54.070;10.012;2022-09-01T09:29:42;0.30;;;0.30;;
30420;SDS011;17218;54.070;10.012;2022-09-01T09:32:10;2.67;;;0.70;;
30420;SDS011;17218;54.070;10.012;2022-09-01T09:34:38;0.68;;;0.50;;
30420;SDS011;17218;54.070;10.012;2022-09-01T09:37:20;2.85;;;0.60;;
30420;SDS011;17218;54.070;10.012;2022-09-01T09:40:03;0.50;;;0.50;;
30420;SDS011;17218;54.070;10.012;2022-09-01T09:42:34;2.42;;;0.60;;
30420;SDS011;17218;54.070;10.012;2022-09-01T09:45:04;0.55;;;0.52;;
30420;SDS011;17218;54.070;10.012;2022-09-01T09:47:36;0.40;;;0.40;;
30420;SDS011;17218;54.070;10.012;2022-09-01T09:50:12;0.57;;;0.57;;
30420;SDS011;17218;54.070;10.012;2022-09-01T09:52:41;0.47;;;0.47;;
30420;SDS011;17218;54.070;10.012;2022-09-01T09:55:17;0.65;;;0.50;;
30420;SDS011;17218;54.070;10.012;2022-09-01T09:57:47;0.63;;;0.50;;
30420;SDS011;17218;54.070;10.012;2022-09-01T10:00:17;1.88;;;0.73;;
30420;SDS011;17218;54.070;10.012;2022-09-01T10:02:48;0.57;;;0.57;;
30420;SDS011;17218;54.070;10.012;2022-09-01T10:05:24;2.42;;;0.75;;
30420;SDS011;17218;54.070;10.012;2022-09-01T10:08:07;1.10;;;0.60;;
30420;SDS011;17218;54.070;10.012;2022-09-01T10:10:37;1.98;;;0.60;;
30420;SDS011;17218;54.070;10.012;2022-09-01T10:13:07;2.50;;;0.50;;
30420;SDS011;17218;54.070;10.012;2022-09-01T10:15:35;0.50;;;0.50;;
30420;SDS011;17218;54.070;10.012;2022-09-01T10:18:05;1.58;;;0.55;;
30420;SDS011;17218;54.070;10.012;2022-09-01T10:20:38;1.13;;;0.80;;
30420;SDS011;17218;54.070;10.012;2022-09-01T10:23:12;0.70;;;0.70;;
30420;SDS011;17218;54.070;10.012;2022-09-01T10:25:39;1.42;;;0.60;;
30420;SDS011;17218;54.070;10.012;2022-09-01T10:28:07;1.38;;;0.80;;
30420;SDS011;17218;54.070;10.012;2022-09-01T10:30:37;0.95;;;0.60;;
30420;SDS011;17218;54.070;10.012;2022-09-01T10:33:07;1.75;;;0.60;;
30420;SDS011;17218;54.070;10.012;2022-09-01T10:35:35;1.88;;;0.60;;
30420;SDS011;17218;54.070;10.012;2022-09-01T10:38:07;1.63;;;0.73;;
30420;SDS011;17218;54.070;10.012;2022-09-01T10:40:36;1.80;;;0.77;;
30420;SDS011;17218;54.070;10.012;2022-09-01T10:43:22;0.85;;;0.50;;
30420;SDS011;17218;54.070;10.012;2022-09-01T10:45:52;2.92;;;1.58;;
30420;SDS011;17218;54.070;10.012;2022-09-01T10:48:25;1.50;;;0.50;;
30420;SDS011;17218;54.070;10.012;2022-09-01T10:51:33;1.65;;;0.70;;
30420;SDS011;17218;54.070;10.012;2022-09-01T10:54:08;0.70;;;0.60;;
30420;SDS011;17218;54.070;10.012;2022-09-01T10:56:55;1.33;;;0.52;;
30420;SDS011;17218;54.070;10.012;2022-09-01T10:59:25;0.88;;;0.57;;
30420;SDS011;17218;54.070;10.012;2022-09-01T11:07:37;1.02;;;0.75;;
30420;SDS011;17218;54.070;10.012;2022-09-01T11:13:08;0.50;;;0.50;;
30420;SDS011;17218;54.070;10.012;2022-09-01T11:16:02;0.65;;;0.60;;
30420;SDS011;17218;54.070;10.012;2022-09-01T11:22:01;1.20;;;0.63;;
30420;SDS011;17218;54.070;10.012;2022-09-01T11:24:49;0.98;;;0.60;;
30420;SDS011;17218;54.070;10.012;2022-09-01T11:30:34;0.60;;;0.50;;
30420;SDS011;17218;54.070;10.012;2022-09-01T11:33:17;0.75;;;0.63;;
30420;SDS011;17218;54.070;10.012;2022-09-01T11:36:10;0.98;;;0.43;;
30420;SDS011;17218;54.070;10.012;2022-09-01T11:38:42;0.77;;;0.50;;
30420;SDS011;17218;54.070;10.012;2022-09-01T11:41:21;0.50;;;0.50;;
30420;SDS011;17218;54.070;10.012;2022-09-01T11:43:50;0.40;;;0.40;;
30420;SDS011;17218;54.070;10.012;2022-09-01T11:46:20;0.47;;;0.40;;
30420;SDS011;17218;54.070;10.012;2022-09-01T11:48:52;1.80;;;0.70;;
30420;SDS011;17218;54.070;10.012;2022-09-01T11:51:20;1.10;;;0.60;;
30420;SDS011;17218;54.070;10.012;2022-09-01T11:53:46;1.33;;;0.50;;
30420;SDS011;17218;54.070;10.012;2022-09-01T11:56:15;0.55;;;0.55;;
30420;SDS011;17218;54.070;10.012;2022-09-01T11:58:44;1.67;;;0.50;;
30420;SDS011;17218;54.070;10.012;2022-09-01T12:01:13;0.75;;;0.50;;
30420;SDS011;17218;54.070;10.012;2022-09-01T12:03:42;1.25;;;0.43;;
30420;SDS011;17218;54.070;10.012;2022-09-01T12:06:10;1.80;;;0.55;;
30420;SDS011;17218;54.070;10.012;2022-09-01T12:08:38;1.85;;;0.60;;
30420;SDS011;17218;54.070;10.012;2022-09-01T12:11:07;1.05;;;0.60;;
30420;SDS011;17218;54.070;10.012;2022-09-01T12:13:37;1.55;;;0.50;;
30420;SDS011;17218;54.070;10.012;2022-09-01T12:16:05;0.50;;;0.43;;
30420;SDS011;17218;54.070;10.012;2022-09-01T12:18:35;0.70;;;0.60;;
30420;SDS011;17218;54.070;10.012;2022-09-01T12:21:05;0.50;;;0.50;;
30420;SDS011;17218;54.070;10.012;2022-09-01T12:23:34;1.33;;;0.68;;
30420;SDS011;17218;54.070;10.012;2022-09-01T12:26:02;0.55;;;0.50;;
30420;SDS011;17218;54.070;10.012;2022-09-01T12:28:31;1.63;;;0.55;;
30420;SDS011;17218;54.070;10.012;2022-09-01T12:31:00;1.10;;;0.90;;
30420;SDS011;17218;54.070;10.012;2022-09-01T12:33:30;3.15;;;0.70;;
30420;SDS011;17218;54.070;10.012;2022-09-01T12:36:17;1.85;;;1.15;;
30420;SDS011;17218;54.070;10.012;2022-09-01T12:38:47;0.90;;;0.60;;
30420;SDS011;17218;54.070;10.012;2022-09-01T12:41:31;2.00;;;0.65;;
30420;SDS011;17218;54.070;10.012;2022-09-01T12:46:56;0.73;;;0.73;;
30420;SDS011;17218;54.070;10.012;2022-09-01T12:49:25;0.60;;;0.60;;
30420;SDS011;17218;54.070;10.012;2022-09-01T12:52:09;0.60;;;0.45;;
30420;SDS011;17218;54.070;10.012;2022-09-01T12:54:38;0.65;;;0.60;;
30420;SDS011;17218;54.070;10.012;2022-09-01T12:57:05;0.82;;;0.50;;
30420;SDS011;17218;54.070;10.012;2022-09-01T12:59:32;0.77;;;0.60;;
30420;SDS011;17218;54.070;10.012;2022-09-01T13:04:53;1.55;;;0.60;;
30420;SDS011;17218;54.070;10.012;2022-09-01T13:07:21;0.80;;;0.68;;
30420;SDS011;17218;54.070;10.012;2022-09-01T13:09:47;0.93;;;0.65;;
30420;SDS011;17218;54.070;10.012;2022-09-01T13:12:15;0.70;;;0.70;;
30420;SDS011;17218;54.070;10.012;2022-09-01T13:14:44;0.73;;;0.70;;
30420;SDS011;17218;54.070;10.012;2022-09-01T13:17:11;2.17;;;0.55;;
30420;SDS011;17218;54.070;10.012;2022-09-01T13:19:37;0.90;;;0.70;;
30420;SDS011;17218;54.070;10.012;2022-09-01T13:22:04;0.85;;;0.68;;
30420;SDS011;17218;54.070;10.012;2022-09-01T13:24:32;0.70;;;0.70;;
30420;SDS011;17218;54.070;10.012;2022-09-01T13:26:59;0.65;;;0.65;;
30420;SDS011;17218;54.070;10.012;2022-09-01T13:29:25;1.35;;;0.70;;
30420;SDS011;17218;54.070;10.012;2022-09-01T13:31:52;2.17;;;0.70;;
30420;SDS011;17218;54.070;10.012;2022-09-01T13:34:18;0.85;;;0.80;;
30420;SDS011;17218;54.070;10.012;2022-09-01T13:36:45;1.38;;;0.80;;
30420;SDS011;17218;54.070;10.012;2022-09-01T13:39:11;0.60;;;0.60;;
30420;SDS011;17218;54.070;10.012;2022-09-01T13:41:39;1.27;;;0.50;;
30420;SDS011;17218;54.070;10.012;2022-09-01T13:44:06;0.90;;;0.50;;
30420;SDS011;17218;54.070;10.012;2022-09-01T13:46:33;0.88;;;0.50;;
30420;SDS011;17218;54.070;10.012;2022-09-01T13:49:00;2.30;;;0.77;;
30420;SDS011;17218;54.070;10.012;2022-09-01T13:51:27;2.22;;;0.60;;
30420;SDS011;17218;54.070;10.012;2022-09-01T13:53:54;1.67;;;0.60;;
30420;SDS011;17218;54.070;10.012;2022-09-01T13:56:20;1.42;;;0.50;;
30420;SDS011;17218;54.070;10.012;2022-09-01T13:58:48;1.42;;;0.60;;
30420;SDS011;17218;54.070;10.012;2022-09-01T14:01:15;1.02;;;0.68;;
30420;SDS011;17218;54.070;10.012;2022-09-01T14:03:41;1.45;;;0.70;;
30420;SDS011;17218;54.070;10.012;2022-09-01T14:06:08;1.52;;;0.68;;
30420;SDS011;17218;54.070;10.012;2022-09-01T14:08:34;0.50;;;0.50;;
30420;SDS011;17218;54.070;10.012;2022-09-01T14:11:01;0.50;;;0.50;;
30420;SDS011;17218;54.070;10.012;2022-09-01T14:13:28;0.50;;;0.50;;
30420;SDS011;17218;54.070;10.012;2022-09-01T14:15:56;2.25;;;0.70;;
30420;SDS011;17218;54.070;10.012;2022-09-01T14:18:23;0.60;;;0.60;;
30420;SDS011;17218;54.070;10.012;2022-09-01T14:20:57;1.85;;;0.50;;
30420;SDS011;17218;54.070;10.012;2022-09-01T14:23:25;2.05;;;0.70;;
30420;SDS011;17218;54.070;10.012;2022-09-01T14:25:52;1.05;;;0.70;;
30420;SDS011;17218;54.070;10.012;2022-09-01T14:28:19;0.73;;;0.70;;
30420;SDS011;17218;54.070;10.012;2022-09-01T14:30:47;1.60;;;0.52;;
30420;SDS011;17218;54.070;10.012;2022-09-01T14:33:16;0.60;;;0.57;;
30420;SDS011;17218;54.070;10.012;2022-09-01T14:35:44;1.00;;;0.70;;
30420;SDS011;17218;54.070;10.012;2022-09-01T14:38:12;0.88;;;0.70;;
30420;SDS011;17218;54.070;10.012;2022-09-01T14:40:39;0.50;;;0.50;;
30420;SDS011;17218;54.070;10.012;2022-09-01T14:43:08;1.38;;;0.55;;
30420;SDS011;17218;54.070;10.012;2022-09-01T14:45:36;0.98;;;0.60;;
30420;SDS011;17218;54.070;10.012;2022-09-01T14:48:03;0.40;;;0.40;;
30420;SDS011;17218;54.070;10.012;2022-09-01T14:50:31;0.57;;;0.57;;
30420;SDS011;17218;54.070;10.012;2022-09-01T14:53:00;0.63;;;0.50;;
30420;SDS011;17218;54.070;10.012;2022-09-01T14:55:28;0.85;;;0.60;;
30420;SDS011;17218;54.070;10.012;2022-09-01T14:57:55;1.85;;;0.75;;
30420;SDS011;17218;54.070;10.012;2022-09-01T15:00:23;0.60;;;0.60;;
30420;SDS011;17218;54.070;10.012;2022-09-01T15:02:50;0.52;;;0.50;;
30420;SDS011;17218;54.070;10.012;2022-09-01T15:05:18;0.82;;;0.50;;
30420;SDS011;17218;54.070;10.012;2022-09-01T15:07:45;0.50;;;0.50;;
30420;SDS011;17218;54.070;10.012;2022-09-01T15:10:13;1.38;;;0.68;;
30420;SDS011;17218;54.070;10.012;2022-09-01T15:12:42;1.75;;;0.80;;